FBU weather

CLOSED Oslo, Fornebu Airport
Oslo, Oslo, Norway

Public forecast

Using degrees Celsius for public forecast. Weather courtesy of forecast.io.

Current aviation weather report (METAR) for Oslo, Fornebu Airport

Retrieved 2020/02/16 21:20 UTC (2 minutes ago):

ENFB 162120Z AUTO 20045KT 5000NDV -SHRA BKN025/// 06/02 Q0959 W///S6

Closest aviation forecast (TAF) to Oslo, Fornebu Airport

Forecast is more than 6 hours old.

Closest forecast is Oslo Gardermoen Airport, 23.0 nm (42.6 km) NE. Retrieved 2020/02/16 12:57 UTC (8 hours ago):

TAF ENGM 161100Z 1612/1712 18015KT 9999 -RA BKN008 TEMPO 1612/1616 20020G35KT 2000 -RADZ BR BKN004 BECMG 1615/1617 FEW030 TEMPO 1615/1621 22015G25KT PROB30 TEMPO 1702/1705 BKN014 TEMPO 1706/1712 22015G25KT